sensor_id;sensor_type;location;lat;lon;timestamp;P1;durP1;ratioP1;P2;durP2;ratioP2
43664;SDS011;29263;48.172;11.484;2022-09-21T00:03:33;5.93;;;3.30;;
43664;SDS011;29263;48.172;11.484;2022-09-21T00:06:06;6.90;;;3.07;;
43664;SDS011;29263;48.172;11.484;2022-09-21T00:08:33;6.60;;;3.93;;
43664;SDS011;29263;48.172;11.484;2022-09-21T00:10:59;5.73;;;3.00;;
43664;SDS011;29263;48.172;11.484;2022-09-21T00:13:26;6.57;;;3.60;;
43664;SDS011;29263;48.172;11.484;2022-09-21T00:15:53;4.90;;;3.07;;
43664;SDS011;29263;48.172;11.484;2022-09-21T00:18:19;5.80;;;3.40;;
43664;SDS011;29263;48.172;11.484;2022-09-21T00:20:46;5.47;;;3.47;;
43664;SDS011;29263;48.172;11.484;2022-09-21T00:23:12;7.80;;;3.13;;
43664;SDS011;29263;48.172;11.484;2022-09-21T00:25:37;6.50;;;3.37;;
43664;SDS011;29263;48.172;11.484;2022-09-21T00:28:03;5.80;;;3.40;;
43664;SDS011;29263;48.172;11.484;2022-09-21T00:30:29;5.63;;;3.53;;
43664;SDS011;29263;48.172;11.484;2022-09-21T00:32:54;5.67;;;3.37;;
43664;SDS011;29263;48.172;11.484;2022-09-21T00:35:20;5.40;;;3.43;;
43664;SDS011;29263;48.172;11.484;2022-09-21T00:37:46;7.60;;;3.73;;
43664;SDS011;29263;48.172;11.484;2022-09-21T00:40:11;5.90;;;3.70;;
43664;SDS011;29263;48.172;11.484;2022-09-21T00:42:37;5.63;;;3.50;;
43664;SDS011;29263;48.172;11.484;2022-09-21T00:45:03;6.77;;;3.20;;
43664;SDS011;29263;48.172;11.484;2022-09-21T00:50:01;5.33;;;3.37;;
43664;SDS011;29263;48.172;11.484;2022-09-21T00:52:32;6.30;;;3.70;;
43664;SDS011;29263;48.172;11.484;2022-09-21T00:57:30;4.90;;;3.63;;
43664;SDS011;29263;48.172;11.484;2022-09-21T00:59:57;6.00;;;3.47;;
43664;SDS011;29263;48.172;11.484;2022-09-21T01:02:26;7.28;;;3.67;;
43664;SDS011;29263;48.172;11.484;2022-09-21T01:04:52;7.27;;;3.60;;
43664;SDS011;29263;48.172;11.484;2022-09-21T01:07:20;7.83;;;3.60;;
43664;SDS011;29263;48.172;11.484;2022-09-21T01:09:49;7.13;;;3.22;;
43664;SDS011;29263;48.172;11.484;2022-09-21T01:12:27;5.43;;;3.55;;
43664;SDS011;29263;48.172;11.484;2022-09-21T01:23:24;11.73;;;3.83;;
43664;SDS011;29263;48.172;11.484;2022-09-21T01:28:55;6.03;;;2.53;;
43664;SDS011;29263;48.172;11.484;2022-09-21T01:31:28;5.07;;;3.40;;
43664;SDS011;29263;48.172;11.484;2022-09-21T01:34:01;8.63;;;4.13;;
43664;SDS011;29263;48.172;11.484;2022-09-21T01:36:32;3.30;;;2.20;;
43664;SDS011;29263;48.172;11.484;2022-09-21T01:39:01;3.83;;;2.50;;
43664;SDS011;29263;48.172;11.484;2022-09-21T01:41:32;6.03;;;2.77;;
43664;SDS011;29263;48.172;11.484;2022-09-21T01:44:08;6.88;;;3.10;;
43664;SDS011;29263;48.172;11.484;2022-09-21T01:46:41;4.10;;;2.93;;
43664;SDS011;29263;48.172;11.484;2022-09-21T01:49:14;3.50;;;2.30;;
43664;SDS011;29263;48.172;11.484;2022-09-21T01:51:47;5.90;;;2.63;;
43664;SDS011;29263;48.172;11.484;2022-09-21T01:54:21;5.33;;;2.70;;
43664;SDS011;29263;48.172;11.484;2022-09-21T01:56:57;2.53;;;1.87;;
43664;SDS011;29263;48.172;11.484;2022-09-21T02:02:18;5.07;;;3.47;;
43664;SDS011;29263;48.172;11.484;2022-09-21T02:04:52;5.27;;;2.60;;
43664;SDS011;29263;48.172;11.484;2022-09-21T02:07:18;3.00;;;2.33;;
43664;SDS011;29263;48.172;11.484;2022-09-21T02:09:44;6.27;;;2.50;;
43664;SDS011;29263;48.172;11.484;2022-09-21T02:12:11;3.30;;;2.23;;
43664;SDS011;29263;48.172;11.484;2022-09-21T02:14:37;5.00;;;2.47;;
43664;SDS011;29263;48.172;11.484;2022-09-21T02:22:21;5.40;;;2.00;;
43664;SDS011;29263;48.172;11.484;2022-09-21T02:25:24;2.90;;;2.13;;
43664;SDS011;29263;48.172;11.484;2022-09-21T02:27:57;4.57;;;1.90;;
43664;SDS011;29263;48.172;11.484;2022-09-21T02:30:30;3.53;;;2.03;;
43664;SDS011;29263;48.172;11.484;2022-09-21T02:36:02;2.83;;;1.83;;
43664;SDS011;29263;48.172;11.484;2022-09-21T02:38:38;3.90;;;2.23;;
43664;SDS011;29263;48.172;11.484;2022-09-21T02:41:15;5.20;;;2.58;;
43664;SDS011;29263;48.172;11.484;2022-09-21T02:44:00;7.63;;;2.13;;
43664;SDS011;29263;48.172;11.484;2022-09-21T02:46:40;4.97;;;2.17;;
43664;SDS011;29263;48.172;11.484;2022-09-21T02:49:17;7.57;;;2.13;;
43664;SDS011;29263;48.172;11.484;2022-09-21T02:51:56;4.43;;;2.10;;
43664;SDS011;29263;48.172;11.484;2022-09-21T02:54:26;2.60;;;1.90;;
43664;SDS011;29263;48.172;11.484;2022-09-21T02:56:54;3.50;;;2.13;;
43664;SDS011;29263;48.172;11.484;2022-09-21T02:59:21;3.17;;;2.13;;
43664;SDS011;29263;48.172;11.484;2022-09-21T03:01:47;4.77;;;2.07;;
43664;SDS011;29263;48.172;11.484;2022-09-21T03:04:15;2.47;;;1.90;;
43664;SDS011;29263;48.172;11.484;2022-09-21T03:06:41;6.70;;;2.23;;
43664;SDS011;29263;48.172;11.484;2022-09-21T03:09:07;2.97;;;1.70;;
43664;SDS011;29263;48.172;11.484;2022-09-21T03:11:33;4.47;;;1.97;;
43664;SDS011;29263;48.172;11.484;2022-09-21T03:16:31;5.00;;;1.43;;
43664;SDS011;29263;48.172;11.484;2022-09-21T03:18:56;2.13;;;1.87;;
43664;SDS011;29263;48.172;11.484;2022-09-21T03:21:22;4.07;;;2.00;;
43664;SDS011;29263;48.172;11.484;2022-09-21T03:23:47;3.87;;;2.03;;
43664;SDS011;29263;48.172;11.484;2022-09-21T03:26:13;4.17;;;1.90;;
43664;SDS011;29263;48.172;11.484;2022-09-21T03:28:38;4.37;;;1.90;;
43664;SDS011;29263;48.172;11.484;2022-09-21T03:31:04;3.43;;;1.83;;
43664;SDS011;29263;48.172;11.484;2022-09-21T03:33:30;3.77;;;2.03;;
43664;SDS011;29263;48.172;11.484;2022-09-21T03:35:56;3.67;;;2.30;;
43664;SDS011;29263;48.172;11.484;2022-09-21T03:38:22;5.03;;;1.83;;
43664;SDS011;29263;48.172;11.484;2022-09-21T03:40:49;4.67;;;2.03;;
43664;SDS011;29263;48.172;11.484;2022-09-21T03:43:15;4.53;;;2.00;;
43664;SDS011;29263;48.172;11.484;2022-09-21T03:45:41;7.40;;;1.87;;
43664;SDS011;29263;48.172;11.484;2022-09-21T03:48:08;3.33;;;2.30;;
43664;SDS011;29263;48.172;11.484;2022-09-21T03:50:35;2.67;;;1.90;;
43664;SDS011;29263;48.172;11.484;2022-09-21T03:53:01;2.73;;;2.00;;
43664;SDS011;29263;48.172;11.484;2022-09-21T03:55:26;3.53;;;2.00;;
43664;SDS011;29263;48.172;11.484;2022-09-21T03:57:52;4.83;;;2.23;;
43664;SDS011;29263;48.172;11.484;2022-09-21T04:00:17;2.67;;;1.63;;
43664;SDS011;29263;48.172;11.484;2022-09-21T04:02:43;5.47;;;1.97;;
43664;SDS011;29263;48.172;11.484;2022-09-21T04:05:10;3.17;;;1.93;;
43664;SDS011;29263;48.172;11.484;2022-09-21T04:07:39;3.47;;;1.85;;
43664;SDS011;29263;48.172;11.484;2022-09-21T04:10:06;2.67;;;1.80;;
43664;SDS011;29263;48.172;11.484;2022-09-21T04:12:37;3.43;;;1.70;;
43664;SDS011;29263;48.172;11.484;2022-09-21T04:15:05;3.72;;;1.95;;
43664;SDS011;29263;48.172;11.484;2022-09-21T04:17:32;2.97;;;1.93;;
43664;SDS011;29263;48.172;11.484;2022-09-21T04:19:58;2.80;;;1.80;;
43664;SDS011;29263;48.172;11.484;2022-09-21T04:22:24;2.57;;;1.87;;
43664;SDS011;29263;48.172;11.484;2022-09-21T04:24:50;2.87;;;1.90;;
43664;SDS011;29263;48.172;11.484;2022-09-21T04:27:16;4.67;;;1.70;;
43664;SDS011;29263;48.172;11.484;2022-09-21T04:29:43;3.43;;;1.70;;
43664;SDS011;29263;48.172;11.484;2022-09-21T04:32:09;4.93;;;1.90;;
43664;SDS011;29263;48.172;11.484;2022-09-21T04:34:35;2.80;;;1.90;;
43664;SDS011;29263;48.172;11.484;2022-09-21T04:37:03;3.07;;;1.73;;
43664;SDS011;29263;48.172;11.484;2022-09-21T04:39:32;5.00;;;2.15;;
43664;SDS011;29263;48.172;11.484;2022-09-21T04:41:58;3.20;;;2.07;;
43664;SDS011;29263;48.172;11.484;2022-09-21T04:44:24;3.63;;;1.90;;
43664;SDS011;29263;48.172;11.484;2022-09-21T04:46:50;2.40;;;1.90;;
43664;SDS011;29263;48.172;11.484;2022-09-21T04:49:15;6.07;;;2.03;;
43664;SDS011;29263;48.172;11.484;2022-09-21T04:51:41;6.67;;;2.27;;
43664;SDS011;29263;48.172;11.484;2022-09-21T04:54:07;3.90;;;2.00;;
43664;SDS011;29263;48.172;11.484;2022-09-21T04:56:32;3.70;;;2.00;;
43664;SDS011;29263;48.172;11.484;2022-09-21T04:58:58;4.20;;;2.10;;
43664;SDS011;29263;48.172;11.484;2022-09-21T05:01:24;4.73;;;2.27;;
43664;SDS011;29263;48.172;11.484;2022-09-21T05:03:50;2.37;;;1.90;;
43664;SDS011;29263;48.172;11.484;2022-09-21T05:06:15;3.10;;;2.10;;
43664;SDS011;29263;48.172;11.484;2022-09-21T05:08:41;2.90;;;2.13;;
43664;SDS011;29263;48.172;11.484;2022-09-21T05:11:25;3.97;;;2.17;;
43664;SDS011;29263;48.172;11.484;2022-09-21T05:13:51;6.77;;;2.20;;
43664;SDS011;29263;48.172;11.484;2022-09-21T05:16:17;2.80;;;1.70;;
43664;SDS011;29263;48.172;11.484;2022-09-21T05:18:43;2.73;;;2.00;;
43664;SDS011;29263;48.172;11.484;2022-09-21T05:21:10;2.43;;;1.77;;
43664;SDS011;29263;48.172;11.484;2022-09-21T05:23:37;2.53;;;1.67;;
43664;SDS011;29263;48.172;11.484;2022-09-21T05:26:03;2.70;;;1.77;;
43664;SDS011;29263;48.172;11.484;2022-09-21T05:28:30;3.70;;;2.60;;
43664;SDS011;29263;48.172;11.484;2022-09-21T05:31:03;3.17;;;1.80;;
43664;SDS011;29263;48.172;11.484;2022-09-21T05:33:52;2.13;;;1.90;;
43664;SDS011;29263;48.172;11.484;2022-09-21T05:38:59;3.10;;;1.90;;
43664;SDS011;29263;48.172;11.484;2022-09-21T05:41:25;3.33;;;2.17;;
43664;SDS011;29263;48.172;11.484;2022-09-21T05:43:51;3.77;;;2.27;;
43664;SDS011;29263;48.172;11.484;2022-09-21T05:46:29;4.40;;;1.80;;
43664;SDS011;29263;48.172;11.484;2022-09-21T05:49:30;2.97;;;1.90;;
43664;SDS011;29263;48.172;11.484;2022-09-21T05:52:11;3.17;;;1.97;;
43664;SDS011;29263;48.172;11.484;2022-09-21T05:57:50;3.03;;;2.00;;
43664;SDS011;29263;48.172;11.484;2022-09-21T06:00:25;3.27;;;1.80;;
43664;SDS011;29263;48.172;11.484;2022-09-21T06:05:51;3.93;;;2.20;;
43664;SDS011;29263;48.172;11.484;2022-09-21T06:08:17;6.37;;;2.37;;
43664;SDS011;29263;48.172;11.484;2022-09-21T06:10:43;4.60;;;2.20;;
43664;SDS011;29263;48.172;11.484;2022-09-21T06:13:08;5.07;;;2.30;;
43664;SDS011;29263;48.172;11.484;2022-09-21T06:15:34;6.13;;;1.97;;
43664;SDS011;29263;48.172;11.484;2022-09-21T06:18:02;3.80;;;2.23;;
43664;SDS011;29263;48.172;11.484;2022-09-21T06:20:29;2.77;;;1.93;;
43664;SDS011;29263;48.172;11.484;2022-09-21T06:23:01;3.33;;;2.20;;
43664;SDS011;29263;48.172;11.484;2022-09-21T06:25:31;2.97;;;2.10;;
43664;SDS011;29263;48.172;11.484;2022-09-21T06:28:07;3.90;;;2.47;;
43664;SDS011;29263;48.172;11.484;2022-09-21T06:30:34;3.47;;;1.80;;
43664;SDS011;29263;48.172;11.484;2022-09-21T06:33:00;3.50;;;2.47;;
43664;SDS011;29263;48.172;11.484;2022-09-21T06:35:27;4.70;;;2.27;;
43664;SDS011;29263;48.172;11.484;2022-09-21T06:37:57;3.23;;;2.00;;
43664;SDS011;29263;48.172;11.484;2022-09-21T06:40:27;3.43;;;2.30;;
43664;SDS011;29263;48.172;11.484;2022-09-21T06:42:55;4.60;;;2.37;;
43664;SDS011;29263;48.172;11.484;2022-09-21T06:45:25;3.43;;;1.97;;
43664;SDS011;29263;48.172;11.484;2022-09-21T06:47:51;4.00;;;2.70;;
43664;SDS011;29263;48.172;11.484;2022-09-21T06:50:16;3.80;;;2.77;;
43664;SDS011;29263;48.172;11.484;2022-09-21T06:52:42;6.00;;;3.37;;
43664;SDS011;29263;48.172;11.484;2022-09-21T06:55:08;7.80;;;2.90;;
43664;SDS011;29263;48.172;11.484;2022-09-21T06:57:34;4.77;;;2.73;;
43664;SDS011;29263;48.172;11.484;2022-09-21T07:00:02;5.17;;;2.53;;
43664;SDS011;29263;48.172;11.484;2022-09-21T07:02:30;4.83;;;3.20;;
43664;SDS011;29263;48.172;11.484;2022-09-21T07:04:55;5.07;;;3.03;;
43664;SDS011;29263;48.172;11.484;2022-09-21T07:07:22;5.50;;;3.00;;
43664;SDS011;29263;48.172;11.484;2022-09-21T07:09:48;5.50;;;3.43;;
43664;SDS011;29263;48.172;11.484;2022-09-21T07:12:13;5.00;;;3.47;;
43664;SDS011;29263;48.172;11.484;2022-09-21T07:14:39;5.50;;;3.27;;
43664;SDS011;29263;48.172;11.484;2022-09-21T07:17:05;11.77;;;3.60;;
43664;SDS011;29263;48.172;11.484;2022-09-21T07:19:32;8.63;;;4.40;;
43664;SDS011;29263;48.172;11.484;2022-09-21T07:21:57;7.13;;;3.40;;
43664;SDS011;29263;48.172;11.484;2022-09-21T07:24:23;4.13;;;3.00;;
43664;SDS011;29263;48.172;11.484;2022-09-21T07:26:48;6.23;;;3.20;;
43664;SDS011;29263;48.172;11.484;2022-09-21T07:29:14;7.97;;;3.77;;
43664;SDS011;29263;48.172;11.484;2022-09-21T07:31:42;5.80;;;3.70;;
43664;SDS011;29263;48.172;11.484;2022-09-21T07:34:09;4.70;;;3.37;;
43664;SDS011;29263;48.172;11.484;2022-09-21T07:36:35;7.20;;;3.20;;
43664;SDS011;29263;48.172;11.484;2022-09-21T07:39:01;5.70;;;3.50;;
43664;SDS011;29263;48.172;11.484;2022-09-21T07:41:27;7.83;;;3.53;;
43664;SDS011;29263;48.172;11.484;2022-09-21T07:43:53;8.77;;;3.63;;
43664;SDS011;29263;48.172;11.484;2022-09-21T07:46:19;5.77;;;3.43;;
43664;SDS011;29263;48.172;11.484;2022-09-21T07:48:44;4.80;;;3.40;;
43664;SDS011;29263;48.172;11.484;2022-09-21T07:51:11;4.27;;;2.80;;
43664;SDS011;29263;48.172;11.484;2022-09-21T07:53:39;6.90;;;3.10;;
43664;SDS011;29263;48.172;11.484;2022-09-21T07:56:07;5.07;;;2.97;;
43664;SDS011;29263;48.172;11.484;2022-09-21T07:58:35;4.43;;;3.00;;
43664;SDS011;29263;48.172;11.484;2022-09-21T08:01:40;4.43;;;3.73;;
43664;SDS011;29263;48.172;11.484;2022-09-21T08:04:07;6.13;;;3.37;;
43664;SDS011;29263;48.172;11.484;2022-09-21T08:06:34;7.07;;;3.77;;
43664;SDS011;29263;48.172;11.484;2022-09-21T08:09:04;5.37;;;2.77;;
43664;SDS011;29263;48.172;11.484;2022-09-21T08:11:30;6.97;;;3.43;;
43664;SDS011;29263;48.172;11.484;2022-09-21T08:13:58;7.07;;;3.20;;
43664;SDS011;29263;48.172;11.484;2022-09-21T08:16:25;6.30;;;2.30;;
43664;SDS011;29263;48.172;11.484;2022-09-21T08:18:51;3.87;;;2.70;;
43664;SDS011;29263;48.172;11.484;2022-09-21T08:21:17;7.80;;;2.50;;
43664;SDS011;29263;48.172;11.484;2022-09-21T08:23:44;4.17;;;1.90;;
43664;SDS011;29263;48.172;11.484;2022-09-21T08:26:12;4.83;;;1.67;;
43664;SDS011;29263;48.172;11.484;2022-09-21T08:28:43;2.67;;;1.30;;
43664;SDS011;29263;48.172;11.484;2022-09-21T08:31:12;4.17;;;1.20;;
43664;SDS011;29263;48.172;11.484;2022-09-21T08:33:39;2.50;;;1.20;;
43664;SDS011;29263;48.172;11.484;2022-09-21T08:36:04;3.50;;;1.10;;
43664;SDS011;29263;48.172;11.484;2022-09-21T08:38:32;2.70;;;1.13;;
43664;SDS011;29263;48.172;11.484;2022-09-21T08:40:59;3.27;;;1.13;;
43664;SDS011;29263;48.172;11.484;2022-09-21T08:45:56;3.27;;;1.00;;
43664;SDS011;29263;48.172;11.484;2022-09-21T08:48:24;2.63;;;0.80;;
43664;SDS011;29263;48.172;11.484;2022-09-21T08:50:55;2.50;;;0.80;;
43664;SDS011;29263;48.172;11.484;2022-09-21T08:53:39;2.33;;;0.80;;
43664;SDS011;29263;48.172;11.484;2022-09-21T08:56:13;2.17;;;0.90;;
43664;SDS011;29263;48.172;11.484;2022-09-21T09:09:28;2.37;;;0.80;;
43664;SDS011;29263;48.172;11.484;2022-09-21T09:15:19;3.00;;;0.70;;
43664;SDS011;29263;48.172;11.484;2022-09-21T09:20:39;1.23;;;0.70;;
43664;SDS011;29263;48.172;11.484;2022-09-21T09:25:52;4.30;;;0.77;;
43664;SDS011;29263;48.172;11.484;2022-09-21T09:28:37;2.23;;;0.70;;
43664;SDS011;29263;48.172;11.484;2022-09-21T09:31:16;1.33;;;0.73;;
43664;SDS011;29263;48.172;11.484;2022-09-21T09:36:53;1.47;;;0.63;;
43664;SDS011;29263;48.172;11.484;2022-09-21T09:39:29;1.70;;;0.40;;
43664;SDS011;29263;48.172;11.484;2022-09-21T09:44:43;0.93;;;0.60;;
43664;SDS011;29263;48.172;11.484;2022-09-21T09:52:44;1.77;;;0.47;;
43664;SDS011;29263;48.172;11.484;2022-09-21T09:57:39;1.67;;;0.90;;
43664;SDS011;29263;48.172;11.484;2022-09-21T10:00:06;2.37;;;0.63;;
43664;SDS011;29263;48.172;11.484;2022-09-21T10:02:49;0.65;;;0.57;;
43664;SDS011;29263;48.172;11.484;2022-09-21T10:05:30;0.95;;;0.32;;
43664;SDS011;29263;48.172;11.484;2022-09-21T10:07:57;0.82;;;0.73;;
43664;SDS011;29263;48.172;11.484;2022-09-21T10:10:34;1.73;;;0.50;;
43664;SDS011;29263;48.172;11.484;2022-09-21T10:15:30;1.73;;;0.45;;
43664;SDS011;29263;48.172;11.484;2022-09-21T10:17:57;1.83;;;0.35;;
43664;SDS011;29263;48.172;11.484;2022-09-21T10:20:41;1.10;;;0.30;;
43664;SDS011;29263;48.172;11.484;2022-09-21T10:25:46;0.43;;;0.30;;
43664;SDS011;29263;48.172;11.484;2022-09-21T10:28:18;0.75;;;0.30;;
43664;SDS011;29263;48.172;11.484;2022-09-21T10:30:46;0.70;;;0.30;;
43664;SDS011;29263;48.172;11.484;2022-09-21T10:33:17;1.48;;;0.40;;
43664;SDS011;29263;48.172;11.484;2022-09-21T10:35:51;1.38;;;0.20;;
43664;SDS011;29263;48.172;11.484;2022-09-21T10:38:17;1.50;;;0.30;;
43664;SDS011;29263;48.172;11.484;2022-09-21T10:40:45;0.52;;;0.30;;
43664;SDS011;29263;48.172;11.484;2022-09-21T10:43:34;0.85;;;0.57;;
43664;SDS011;29263;48.172;11.484;2022-09-21T10:46:06;1.23;;;0.22;;
43664;SDS011;29263;48.172;11.484;2022-09-21T10:48:32;5.10;;;0.82;;
43664;SDS011;29263;48.172;11.484;2022-09-21T10:50:58;1.75;;;0.25;;
43664;SDS011;29263;48.172;11.484;2022-09-21T10:53:25;0.82;;;0.30;;
43664;SDS011;29263;48.172;11.484;2022-09-21T10:56:00;0.70;;;0.40;;
43664;SDS011;29263;48.172;11.484;2022-09-21T10:58:28;0.82;;;0.40;;
43664;SDS011;29263;48.172;11.484;2022-09-21T11:00:56;2.03;;;0.60;;
43664;SDS011;29263;48.172;11.484;2022-09-21T11:09:05;2.40;;;0.40;;
43664;SDS011;29263;48.172;11.484;2022-09-21T11:11:51;0.95;;;0.40;;
43664;SDS011;29263;48.172;11.484;2022-09-21T11:17:39;1.13;;;0.50;;
43664;SDS011;29263;48.172;11.484;2022-09-21T11:23:30;3.30;;;0.70;;
43664;SDS011;29263;48.172;11.484;2022-09-21T11:29:49;1.77;;;0.55;;
43664;SDS011;29263;48.172;11.484;2022-09-21T11:35:29;0.98;;;0.85;;
43664;SDS011;29263;48.172;11.484;2022-09-21T11:38:03;1.65;;;0.40;;
43664;SDS011;29263;48.172;11.484;2022-09-21T11:46:26;0.55;;;0.32;;
43664;SDS011;29263;48.172;11.484;2022-09-21T11:54:14;3.42;;;0.60;;
43664;SDS011;29263;48.172;11.484;2022-09-21T12:02:50;0.52;;;0.30;;
43664;SDS011;29263;48.172;11.484;2022-09-21T12:11:31;1.45;;;0.40;;
43664;SDS011;29263;48.172;11.484;2022-09-21T12:14:04;0.57;;;0.38;;
43664;SDS011;29263;48.172;11.484;2022-09-21T12:22:20;2.58;;;0.30;;
43664;SDS011;29263;48.172;11.484;2022-09-21T12:25:32;2.33;;;0.52;;
43664;SDS011;29263;48.172;11.484;2022-09-21T12:28:06;0.68;;;0.38;;
43664;SDS011;29263;48.172;11.484;2022-09-21T12:30:55;1.75;;;0.30;;
43664;SDS011;29263;48.172;11.484;2022-09-21T12:35:57;3.22;;;0.40;;
43664;SDS011;29263;48.172;11.484;2022-09-21T12:38:35;1.05;;;0.30;;
43664;SDS011;29263;48.172;11.484;2022-09-21T12:41:08;1.38;;;0.45;;
43664;SDS011;29263;48.172;11.484;2022-09-21T12:46:35;2.95;;;0.20;;
43664;SDS011;29263;48.172;11.484;2022-09-21T12:49:14;2.33;;;0.30;;
43664;SDS011;29263;48.172;11.484;2022-09-21T12:51:54;0.60;;;0.30;;
43664;SDS011;29263;48.172;11.484;2022-09-21T12:57:02;1.35;;;0.43;;
43664;SDS011;29263;48.172;11.484;2022-09-21T12:59:46;0.28;;;0.20;;
43664;SDS011;29263;48.172;11.484;2022-09-21T13:04:59;1.05;;;0.30;;
43664;SDS011;29263;48.172;11.484;2022-09-21T13:12:53;0.85;;;0.20;;
43664;SDS011;29263;48.172;11.484;2022-09-21T13:15:26;0.88;;;0.30;;
43664;SDS011;29263;48.172;11.484;2022-09-21T13:17:59;4.10;;;0.40;;
43664;SDS011;29263;48.172;11.484;2022-09-21T13:20:36;0.57;;;0.22;;
43664;SDS011;29263;48.172;11.484;2022-09-21T13:23:04;0.60;;;0.40;;
43664;SDS011;29263;48.172;11.484;2022-09-21T13:25:31;0.68;;;0.30;;
43664;SDS011;29263;48.172;11.484;2022-09-21T13:38:21;0.57;;;0.28;;
43664;SDS011;29263;48.172;11.484;2022-09-21T13:46:43;1.15;;;0.30;;
43664;SDS011;29263;48.172;11.484;2022-09-21T13:49:14;1.00;;;0.40;;
43664;SDS011;29263;48.172;11.484;2022-09-21T13:51:50;1.33;;;0.30;;
43664;SDS011;29263;48.172;11.484;2022-09-21T13:54:22;1.73;;;0.30;;
43664;SDS011;29263;48.172;11.484;2022-09-21T14:02:32;2.13;;;0.40;;
43664;SDS011;29263;48.172;11.484;2022-09-21T14:05:31;1.65;;;0.25;;
43664;SDS011;29263;48.172;11.484;2022-09-21T14:08:17;0.82;;;0.28;;
43664;SDS011;29263;48.172;11.484;2022-09-21T14:11:01;1.60;;;0.40;;
43664;SDS011;29263;48.172;11.484;2022-09-21T14:13:37;0.70;;;0.30;;
43664;SDS011;29263;48.172;11.484;2022-09-21T14:21:39;0.30;;;0.20;;
43664;SDS011;29263;48.172;11.484;2022-09-21T14:32:42;3.05;;;0.22;;
43664;SDS011;29263;48.172;11.484;2022-09-21T14:35:24;0.70;;;0.10;;
43664;SDS011;29263;48.172;11.484;2022-09-21T14:37:55;0.45;;;0.30;;
43664;SDS011;29263;48.172;11.484;2022-09-21T14:40:27;0.47;;;0.20;;
43664;SDS011;29263;48.172;11.484;2022-09-21T14:43:00;1.58;;;0.40;;
43664;SDS011;29263;48.172;11.484;2022-09-21T14:50:50;1.45;;;0.45;;
43664;SDS011;29263;48.172;11.484;2022-09-21T15:03:58;0.50;;;0.30;;
43664;SDS011;29263;48.172;11.484;2022-09-21T15:12:49;1.17;;;0.28;;
43664;SDS011;29263;48.172;11.484;2022-09-21T15:18:41;0.55;;;0.20;;
43664;SDS011;29263;48.172;11.484;2022-09-21T15:21:19;1.00;;;0.68;;
43664;SDS011;29263;48.172;11.484;2022-09-21T15:23:48;0.32;;;0.10;;
43664;SDS011;29263;48.172;11.484;2022-09-21T15:26:16;1.33;;;0.30;;
43664;SDS011;29263;48.172;11.484;2022-09-21T15:28:53;1.90;;;0.80;;
43664;SDS011;29263;48.172;11.484;2022-09-21T15:31:24;1.27;;;0.30;;
43664;SDS011;29263;48.172;11.484;2022-09-21T15:33:55;0.60;;;0.10;;
43664;SDS011;29263;48.172;11.484;2022-09-21T15:36:25;1.50;;;0.60;;
43664;SDS011;29263;48.172;11.484;2022-09-21T15:38:53;0.80;;;0.20;;
43664;SDS011;29263;48.172;11.484;2022-09-21T15:41:42;1.80;;;0.40;;
43664;SDS011;29263;48.172;11.484;2022-09-21T15:44:43;0.75;;;0.38;;
43664;SDS011;29263;48.172;11.484;2022-09-21T15:47:02;2.65;;;0.43;;
43664;SDS011;29263;48.172;11.484;2022-09-21T15:49:32;0.52;;;0.20;;
43664;SDS011;29263;48.172;11.484;2022-09-21T15:52:00;1.50;;;0.55;;
43664;SDS011;29263;48.172;11.484;2022-09-21T15:54:43;0.90;;;0.40;;
43664;SDS011;29263;48.172;11.484;2022-09-21T15:57:23;0.77;;;0.40;;
43664;SDS011;29263;48.172;11.484;2022-09-21T15:59:55;0.52;;;0.40;;
43664;SDS011;29263;48.172;11.484;2022-09-21T16:02:24;0.73;;;0.50;;
43664;SDS011;29263;48.172;11.484;2022-09-21T16:04:59;1.52;;;0.60;;
43664;SDS011;29263;48.172;11.484;2022-09-21T16:07:33;0.35;;;0.20;;
43664;SDS011;29263;48.172;11.484;2022-09-21T16:10:01;1.27;;;0.47;;
43664;SDS011;29263;48.172;11.484;2022-09-21T16:12:47;0.82;;;0.38;;
43664;SDS011;29263;48.172;11.484;2022-09-21T16:15:18;0.55;;;0.38;;
43664;SDS011;29263;48.172;11.484;2022-09-21T16:18:00;1.75;;;0.30;;
43664;SDS011;29263;48.172;11.484;2022-09-21T16:23:14;0.40;;;0.30;;
43664;SDS011;29263;48.172;11.484;2022-09-21T16:25:57;0.40;;;0.30;;
43664;SDS011;29263;48.172;11.484;2022-09-21T16:38:41;0.70;;;0.50;;
43664;SDS011;29263;48.172;11.484;2022-09-21T16:41:07;0.43;;;0.25;;
43664;SDS011;29263;48.172;11.484;2022-09-21T16:43:34;0.40;;;0.30;;
43664;SDS011;29263;48.172;11.484;2022-09-21T16:46:04;0.70;;;0.40;;
43664;SDS011;29263;48.172;11.484;2022-09-21T16:48:32;0.60;;;0.45;;
43664;SDS011;29263;48.172;11.484;2022-09-21T16:50:58;0.98;;;0.40;;
43664;SDS011;29263;48.172;11.484;2022-09-21T16:53:23;2.33;;;0.52;;
43664;SDS011;29263;48.172;11.484;2022-09-21T16:55:51;4.83;;;0.60;;
43664;SDS011;29263;48.172;11.484;2022-09-21T16:58:21;0.97;;;0.50;;
43664;SDS011;29263;48.172;11.484;2022-09-21T17:00:48;1.33;;;0.63;;
43664;SDS011;29263;48.172;11.484;2022-09-21T17:03:17;1.27;;;0.60;;
43664;SDS011;29263;48.172;11.484;2022-09-21T17:05:43;1.80;;;0.80;;
43664;SDS011;29263;48.172;11.484;2022-09-21T17:08:09;4.33;;;1.80;;
43664;SDS011;29263;48.172;11.484;2022-09-21T17:10:37;1.52;;;0.63;;
43664;SDS011;29263;48.172;11.484;2022-09-21T17:13:08;1.73;;;0.57;;
43664;SDS011;29263;48.172;11.484;2022-09-21T17:15:35;1.40;;;0.52;;
43664;SDS011;29263;48.172;11.484;2022-09-21T17:18:05;1.20;;;0.63;;
43664;SDS011;29263;48.172;11.484;2022-09-21T17:25:27;1.17;;;0.50;;
43664;SDS011;29263;48.172;11.484;2022-09-21T17:27:54;1.67;;;0.47;;
43664;SDS011;29263;48.172;11.484;2022-09-21T17:30:26;2.50;;;0.70;;
43664;SDS011;29263;48.172;11.484;2022-09-21T17:32:52;0.43;;;0.43;;
43664;SDS011;29263;48.172;11.484;2022-09-21T17:35:37;2.50;;;0.60;;
43664;SDS011;29263;48.172;11.484;2022-09-21T17:38:04;0.57;;;0.50;;
43664;SDS011;29263;48.172;11.484;2022-09-21T17:40:32;1.43;;;0.53;;
43664;SDS011;29263;48.172;11.484;2022-09-21T17:43:10;0.80;;;0.77;;
43664;SDS011;29263;48.172;11.484;2022-09-21T17:45:43;2.85;;;1.13;;
43664;SDS011;29263;48.172;11.484;2022-09-21T17:48:18;3.07;;;0.80;;
43664;SDS011;29263;48.172;11.484;2022-09-21T17:50:46;0.93;;;0.60;;
43664;SDS011;29263;48.172;11.484;2022-09-21T17:53:12;1.20;;;0.77;;
43664;SDS011;29263;48.172;11.484;2022-09-21T17:55:57;1.33;;;0.80;;
43664;SDS011;29263;48.172;11.484;2022-09-21T18:01:38;0.80;;;0.60;;
43664;SDS011;29263;48.172;11.484;2022-09-21T18:03:54;2.33;;;0.90;;
43664;SDS011;29263;48.172;11.484;2022-09-21T18:06:19;1.20;;;0.90;;
43664;SDS011;29263;48.172;11.484;2022-09-21T18:08:46;1.83;;;0.80;;
43664;SDS011;29263;48.172;11.484;2022-09-21T18:19:44;0.90;;;0.77;;
43664;SDS011;29263;48.172;11.484;2022-09-21T18:25:08;1.87;;;0.90;;
43664;SDS011;29263;48.172;11.484;2022-09-21T18:27:41;2.07;;;1.07;;
43664;SDS011;29263;48.172;11.484;2022-09-21T18:30:11;2.07;;;1.17;;
43664;SDS011;29263;48.172;11.484;2022-09-21T18:43:59;1.10;;;1.00;;
43664;SDS011;29263;48.172;11.484;2022-09-21T18:49:29;2.67;;;1.20;;
43664;SDS011;29263;48.172;11.484;2022-09-21T18:52:03;1.97;;;1.23;;
43664;SDS011;29263;48.172;11.484;2022-09-21T18:54:49;2.20;;;1.10;;
43664;SDS011;29263;48.172;11.484;2022-09-21T18:57:15;2.90;;;1.37;;
43664;SDS011;29263;48.172;11.484;2022-09-21T18:59:41;2.53;;;1.30;;
43664;SDS011;29263;48.172;11.484;2022-09-21T19:02:11;3.27;;;1.30;;
43664;SDS011;29263;48.172;11.484;2022-09-21T19:04:40;2.17;;;1.40;;
43664;SDS011;29263;48.172;11.484;2022-09-21T19:07:19;3.33;;;2.03;;